createdAt,value
2019-02-23T00:01:24.270Z,12.60
2019-02-23T00:03:52.708Z,13.20
2019-02-23T00:06:29.266Z,15.43
2019-02-23T00:08:51.241Z,14.07
2019-02-23T00:11:19.619Z,13.70
2019-02-23T00:13:47.967Z,16.40
2019-02-23T00:16:16.313Z,15.50
2019-02-23T00:18:44.970Z,14.30
2019-02-23T00:21:13.301Z,18.60
2019-02-23T00:23:41.650Z,12.33
2019-02-23T00:26:10.048Z,14.77
2019-02-23T00:28:38.379Z,15.70
2019-02-23T00:31:06.822Z,15.40
2019-02-23T00:33:35.156Z,18.43
2019-02-23T00:36:03.766Z,16.73
2019-02-23T00:38:32.180Z,16.00
2019-02-23T00:41:00.602Z,13.23
2019-02-23T00:43:28.920Z,14.40
2019-02-23T00:45:57.253Z,15.67
2019-02-23T00:48:25.732Z,14.67
2019-02-23T00:50:54.152Z,17.03
2019-02-23T00:53:22.567Z,17.80
2019-02-23T00:55:50.895Z,14.93
2019-02-23T00:58:19.225Z,15.33
2019-02-23T01:00:47.560Z,14.13
2019-02-23T01:03:15.879Z,12.30
2019-02-23T01:05:44.334Z,20.13
2019-02-23T01:08:12.715Z,16.70
2019-02-23T01:10:42.115Z,15.47
2019-02-23T01:13:10.502Z,17.50
2019-02-23T01:15:39.018Z,16.20
2019-02-23T01:18:07.698Z,17.33
2019-02-23T01:20:36.384Z,15.00
2019-02-23T01:23:05.228Z,17.27
2019-02-23T01:25:33.635Z,17.30
2019-02-23T01:28:02.039Z,16.77
2019-02-23T01:30:30.442Z,16.80
2019-02-23T01:32:58.770Z,16.90
2019-02-23T01:35:27.094Z,15.80
2019-02-23T01:37:55.432Z,14.70
2019-02-23T01:40:23.758Z,13.23
2019-02-23T01:42:52.154Z,16.83
2019-02-23T01:45:20.570Z,16.97
2019-02-23T01:47:48.983Z,16.33
2019-02-23T01:50:17.384Z,19.20
2019-02-23T01:52:45.792Z,17.60
2019-02-23T01:55:14.191Z,15.40
2019-02-23T01:57:44.389Z,16.80
2019-02-23T02:00:14.055Z,17.33
2019-02-23T02:02:42.759Z,55.00
2019-02-23T02:05:11.749Z,18.27
2019-02-23T02:07:40.163Z,20.10
2019-02-23T02:10:09.455Z,22.47
2019-02-23T02:12:38.019Z,19.43
2019-02-23T02:15:07.655Z,14.93
2019-02-23T02:17:36.392Z,14.07
2019-02-23T02:20:11.076Z,15.60
2019-02-23T02:22:35.047Z,20.93
2019-02-23T02:25:03.444Z,17.57
2019-02-23T02:27:32.166Z,16.10
2019-02-23T02:30:01.658Z,18.03
2019-02-23T02:32:31.122Z,16.53
2019-02-23T02:34:59.538Z,16.13
2019-02-23T02:37:29.029Z,17.93
2019-02-23T02:39:57.349Z,17.87
2019-02-23T02:42:27.551Z,18.63
2019-02-23T02:44:55.957Z,16.93
2019-02-23T02:47:24.289Z,15.70
2019-02-23T02:49:52.622Z,18.90
2019-02-23T02:52:21.053Z,25.80
2019-02-23T02:54:49.441Z,17.40
2019-02-23T02:57:17.780Z,21.10
2019-02-23T02:59:46.543Z,16.87
2019-02-23T03:02:14.934Z,17.60
2019-02-23T03:04:43.652Z,17.00
2019-02-23T03:07:12.067Z,19.73
2019-02-23T03:09:40.401Z,16.37
2019-02-23T03:12:08.855Z,16.03
2019-02-23T03:14:37.195Z,18.33
2019-02-23T03:17:05.519Z,17.23
2019-02-23T03:19:33.907Z,17.73
2019-02-23T03:22:02.320Z,15.77
2019-02-23T03:24:30.647Z,18.00
2019-02-23T03:26:58.988Z,16.53
2019-02-23T03:29:27.419Z,17.73
2019-02-23T03:31:55.811Z,14.90
2019-02-23T03:34:24.126Z,19.80
2019-02-23T03:36:52.883Z,17.90
2019-02-23T03:39:21.288Z,16.70
2019-02-23T03:41:49.598Z,17.07
2019-02-23T03:44:17.943Z,17.77
2019-02-23T03:46:46.330Z,16.87
2019-02-23T03:49:14.661Z,18.17
2019-02-23T03:51:43.062Z,17.40
2019-02-23T03:54:11.409Z,15.80
2019-02-23T03:56:39.814Z,17.60
2019-02-23T03:59:08.214Z,16.03
2019-02-23T04:01:36.611Z,19.60
2019-02-23T04:04:04.925Z,17.77
2019-02-23T04:06:33.639Z,23.97
2019-02-23T04:09:02.926Z,14.80
2019-02-23T04:11:33.296Z,18.40
2019-02-23T04:14:01.627Z,17.33
2019-02-23T04:16:30.023Z,22.10
2019-02-23T04:18:58.447Z,17.83
2019-02-23T04:21:26.868Z,17.60
2019-02-23T04:23:55.519Z,17.27
2019-02-23T04:26:24.247Z,17.70
2019-02-23T04:28:52.650Z,18.60
2019-02-23T04:31:21.053Z,17.43
2019-02-23T04:33:49.467Z,17.17
2019-02-23T04:36:17.949Z,18.80
2019-02-23T04:38:46.335Z,16.23
2019-02-23T04:41:14.686Z,19.23
2019-02-23T04:43:44.219Z,20.20
2019-02-23T04:46:12.718Z,19.37
2019-02-23T04:48:41.050Z,17.33
2019-02-23T04:51:14.495Z,19.93
2019-02-23T04:53:39.482Z,18.23
2019-02-23T04:56:07.898Z,19.53
2019-02-23T04:58:36.231Z,18.37
2019-02-23T05:01:04.637Z,17.20
2019-02-23T05:03:32.987Z,20.50
2019-02-23T05:06:01.617Z,21.50
2019-02-23T05:08:29.943Z,26.10
2019-02-23T05:10:58.384Z,21.27
2019-02-23T05:13:26.678Z,20.17
2019-02-23T05:15:55.040Z,21.73
2019-02-23T05:18:23.711Z,21.60
2019-02-23T05:20:52.121Z,19.63
2019-02-23T05:23:20.433Z,21.60
2019-02-23T05:25:48.853Z,23.60
2019-02-23T05:28:17.171Z,21.40
2019-02-23T05:30:45.571Z,21.97
2019-02-23T05:33:13.899Z,18.10
2019-02-23T05:35:42.219Z,21.10
2019-02-23T05:38:10.539Z,19.87
2019-02-23T05:40:38.899Z,19.33
2019-02-23T05:43:07.299Z,18.30
2019-02-23T05:45:35.628Z,20.73
2019-02-23T05:48:04.044Z,22.30
2019-02-23T05:50:32.366Z,27.50
2019-02-23T05:53:00.686Z,21.90
2019-02-23T05:55:29.116Z,19.60
2019-02-23T05:57:57.463Z,18.80
2019-02-23T06:00:25.866Z,23.13
2019-02-23T06:02:54.284Z,17.97
2019-02-23T06:05:22.602Z,20.37
2019-02-23T06:07:51.013Z,20.83
2019-02-23T06:10:19.430Z,22.47
2019-02-23T06:12:48.919Z,26.80
2019-02-23T06:15:17.320Z,19.90
2019-02-23T06:17:45.693Z,21.63
2019-02-23T06:20:14.015Z,21.13
2019-02-23T06:22:42.418Z,19.30
2019-02-23T06:25:10.773Z,22.47
2019-02-23T06:27:39.219Z,20.93
2019-02-23T06:30:08.607Z,27.37
2019-02-23T06:32:37.015Z,24.57
2019-02-23T06:35:05.807Z,22.70
2019-02-23T06:37:34.131Z,23.50
2019-02-23T06:40:02.938Z,24.57
2019-02-23T06:42:31.244Z,18.80
2019-02-23T06:44:59.573Z,21.47
2019-02-23T06:47:27.921Z,22.63
2019-02-23T06:49:56.302Z,25.80
2019-02-23T06:52:24.714Z,22.97
2019-02-23T06:54:53.046Z,22.37
2019-02-23T06:57:21.936Z,19.90
2019-02-23T06:59:50.697Z,21.20
2019-02-23T07:02:19.428Z,22.50
2019-02-23T07:04:47.825Z,30.23
2019-02-23T07:07:16.149Z,22.80
2019-02-23T07:09:44.551Z,19.83
2019-02-23T07:12:12.876Z,18.20
2019-02-23T07:14:41.195Z,16.63
2019-02-23T07:17:09.853Z,18.73
2019-02-23T07:19:38.165Z,17.50
2019-02-23T07:22:15.097Z,14.60
2019-02-23T07:24:36.858Z,13.77
2019-02-23T07:27:05.251Z,15.57
2019-02-23T07:29:34.639Z,17.93
2019-02-23T07:32:02.986Z,16.67
2019-02-23T07:34:31.307Z,19.73
2019-02-23T07:36:59.750Z,15.10
2019-02-23T07:39:28.086Z,13.97
2019-02-23T07:41:56.493Z,14.37
2019-02-23T07:44:24.899Z,13.53
2019-02-23T07:46:54.003Z,14.20
2019-02-23T07:49:22.314Z,12.20
2019-02-23T07:51:50.627Z,10.93
2019-02-23T07:54:18.963Z,14.10
2019-02-23T07:56:47.360Z,10.33
2019-02-23T07:59:15.756Z,12.57
2019-02-23T08:01:44.177Z,11.70
2019-02-23T08:04:12.486Z,9.70
2019-02-23T08:06:40.810Z,10.43
2019-02-23T08:09:10.700Z,12.73
2019-02-23T08:11:39.306Z,12.93
2019-02-23T08:14:07.704Z,9.60
2019-02-23T08:16:36.115Z,11.10
2019-02-23T08:19:04.444Z,9.20
2019-02-23T08:21:32.910Z,10.93
2019-02-23T08:24:01.256Z,11.73
2019-02-23T08:26:29.713Z,15.00
2019-02-23T08:28:58.779Z,14.00
2019-02-23T08:31:27.110Z,12.57
2019-02-23T08:33:55.737Z,12.90
2019-02-23T08:36:24.416Z,11.90
2019-02-23T08:38:52.835Z,11.83
2019-02-23T08:41:21.222Z,9.93
2019-02-23T08:43:49.551Z,7.90
2019-02-23T08:46:17.891Z,12.00
2019-02-23T08:48:46.247Z,18.33
2019-02-23T08:51:14.651Z,22.00
2019-02-23T08:53:43.195Z,39.93
2019-02-23T08:56:11.543Z,26.90
2019-02-23T08:58:39.870Z,25.10
2019-02-23T09:01:08.308Z,16.47
2019-02-23T09:03:36.712Z,17.43
2019-02-23T09:06:05.104Z,12.40
2019-02-23T09:08:34.382Z,11.83
2019-02-23T09:11:02.781Z,8.90
2019-02-23T09:13:31.176Z,7.30
2019-02-23T09:15:59.511Z,9.67
2019-02-23T09:18:27.819Z,10.33
2019-02-23T09:20:56.566Z,10.40
2019-02-23T09:23:25.136Z,9.20
2019-02-23T09:25:53.456Z,14.07
2019-02-23T09:28:21.775Z,11.03
2019-02-23T09:30:50.180Z,9.60
2019-02-23T09:33:18.576Z,8.93
2019-02-23T09:35:46.974Z,14.00
2019-02-23T09:38:15.395Z,16.20
2019-02-23T09:40:43.989Z,10.10
2019-02-23T09:43:12.387Z,11.63
2019-02-23T09:45:40.729Z,9.23
2019-02-23T09:48:09.127Z,8.20
2019-02-23T09:50:37.542Z,7.70
2019-02-23T09:53:11.314Z,10.60
2019-02-23T09:55:36.131Z,13.50
2019-02-23T09:58:04.545Z,7.50
2019-02-23T10:00:32.948Z,7.87
2019-02-23T10:03:01.281Z,11.40
2019-02-23T10:05:29.598Z,7.20
2019-02-23T10:07:57.942Z,4.47
2019-02-23T10:10:26.334Z,7.67
2019-02-23T10:12:54.650Z,8.93
2019-02-23T10:15:23.363Z,7.83
2019-02-23T10:17:51.771Z,6.20
2019-02-23T10:20:20.093Z,7.93
2019-02-23T10:22:48.506Z,10.00
2019-02-23T10:25:17.288Z,8.37
2019-02-23T10:27:45.682Z,7.40
2019-02-23T10:30:14.088Z,7.77
2019-02-23T10:32:42.498Z,7.77
2019-02-23T10:35:10.896Z,14.37
2019-02-23T10:37:39.240Z,7.93
2019-02-23T10:40:08.174Z,10.03
2019-02-23T10:42:36.508Z,6.10
